createdAt,value
2019-03-24T00:02:01.131Z,13.90
2019-03-24T00:04:29.212Z,13.70
2019-03-24T00:06:57.422Z,24.00
2019-03-24T00:09:25.251Z,18.53
2019-03-24T00:11:53.125Z,14.43
2019-03-24T00:14:21.030Z,23.43
2019-03-24T00:16:48.869Z,15.17
2019-03-24T00:19:16.892Z,26.13
2019-03-24T00:21:44.805Z,17.43
2019-03-24T00:24:13.214Z,18.07
2019-03-24T00:26:41.140Z,17.87
2019-03-24T00:29:09.285Z,17.80
2019-03-24T00:31:37.235Z,19.57
2019-03-24T00:34:05.050Z,24.43
2019-03-24T00:36:32.892Z,20.93
2019-03-24T00:39:00.832Z,21.23
2019-03-24T00:41:28.734Z,15.10
2019-03-24T00:43:56.639Z,22.67
2019-03-24T00:46:24.492Z,24.20
2019-03-24T00:48:52.961Z,14.07
2019-03-24T00:51:20.736Z,17.00
2019-03-24T00:53:48.680Z,26.17
2019-03-24T00:56:16.626Z,17.93
2019-03-24T00:58:44.566Z,20.10
2019-03-24T01:01:12.689Z,21.77
2019-03-24T01:03:40.500Z,18.73
2019-03-24T01:06:08.328Z,13.20
2019-03-24T01:08:36.701Z,15.23
2019-03-24T01:11:04.603Z,18.60
2019-03-24T01:13:32.546Z,19.07
2019-03-24T01:16:00.459Z,17.93
2019-03-24T01:18:28.310Z,17.13
2019-03-24T01:20:56.415Z,22.80
2019-03-24T01:23:24.694Z,28.17
2019-03-24T01:25:52.884Z,19.97
2019-03-24T01:28:20.810Z,17.57
2019-03-24T01:30:48.736Z,19.17
2019-03-24T01:33:16.645Z,19.40
2019-03-24T01:35:44.451Z,18.37
2019-03-24T01:38:12.299Z,18.23
2019-03-24T01:40:40.097Z,18.80
2019-03-24T01:43:07.961Z,21.07
2019-03-24T01:45:35.764Z,18.47
2019-03-24T01:48:03.725Z,18.30
2019-03-24T01:50:31.631Z,22.33
2019-03-24T01:52:59.732Z,17.80
2019-03-24T01:55:27.579Z,23.57
2019-03-24T01:57:55.429Z,21.43
2019-03-24T02:00:23.345Z,16.97
2019-03-24T02:02:51.816Z,12.27
2019-03-24T02:05:19.735Z,17.50
2019-03-24T02:07:47.567Z,16.80
2019-03-24T02:10:16.128Z,8.90
2019-03-24T02:12:43.941Z,15.07
2019-03-24T02:15:11.796Z,15.67
2019-03-24T02:17:39.914Z,22.03
2019-03-24T02:20:08.854Z,19.20
2019-03-24T02:22:36.935Z,21.17
2019-03-24T02:25:05.016Z,24.30
2019-03-24T02:27:32.955Z,20.10
2019-03-24T02:30:00.796Z,12.90
2019-03-24T02:32:28.704Z,21.83
2019-03-24T02:34:56.635Z,20.47
2019-03-24T02:37:24.578Z,29.43
2019-03-24T02:39:52.800Z,20.40
2019-03-24T02:42:20.712Z,18.07
2019-03-24T02:44:48.561Z,20.13
2019-03-24T02:47:16.413Z,26.33
2019-03-24T02:49:44.341Z,23.37
2019-03-24T02:52:12.187Z,16.20
2019-03-24T02:54:40.124Z,17.73
2019-03-24T02:57:07.936Z,13.97
2019-03-24T02:59:35.794Z,15.77
2019-03-24T03:02:04.197Z,19.30
2019-03-24T03:04:32.185Z,20.83
2019-03-24T03:07:00.052Z,18.63
2019-03-24T03:09:27.963Z,16.10
2019-03-24T03:11:55.874Z,15.03
2019-03-24T03:14:23.818Z,21.40
2019-03-24T03:16:51.809Z,15.60
2019-03-24T03:19:19.772Z,19.80
2019-03-24T03:21:47.600Z,23.27
2019-03-24T03:24:15.750Z,18.13
2019-03-24T03:26:43.677Z,23.50
2019-03-24T03:29:12.403Z,20.73
2019-03-24T03:31:40.230Z,21.53
2019-03-24T03:34:08.189Z,21.60
2019-03-24T03:36:36.361Z,18.97
2019-03-24T03:39:06.119Z,16.03
2019-03-24T03:41:33.972Z,17.93
2019-03-24T03:44:02.195Z,19.57
2019-03-24T03:46:30.415Z,33.47
2019-03-24T03:48:58.627Z,28.10
2019-03-24T03:51:26.567Z,23.23
2019-03-24T03:53:54.419Z,20.37
2019-03-24T03:56:22.843Z,25.53
2019-03-24T03:58:51.042Z,18.07
2019-03-24T04:01:19.257Z,23.10
2019-03-24T04:03:47.502Z,18.83
2019-03-24T04:06:15.475Z,16.67
2019-03-24T04:08:43.409Z,22.63
2019-03-24T04:11:11.371Z,28.33
2019-03-24T04:13:39.573Z,17.67
2019-03-24T04:16:07.813Z,20.37
2019-03-24T04:18:35.727Z,19.87
2019-03-24T04:21:03.922Z,23.30
2019-03-24T04:23:31.766Z,15.43
2019-03-24T04:25:59.990Z,22.10
2019-03-24T04:28:28.214Z,14.87
2019-03-24T04:30:56.467Z,25.93
2019-03-24T04:33:24.659Z,19.00
2019-03-24T04:35:52.571Z,14.73
2019-03-24T04:38:20.440Z,22.33
2019-03-24T04:40:48.358Z,22.07
2019-03-24T04:43:16.277Z,22.57
2019-03-24T04:45:44.188Z,23.23
2019-03-24T04:48:12.311Z,24.20
2019-03-24T04:50:40.151Z,21.17
2019-03-24T04:53:08.090Z,19.03
2019-03-24T04:55:35.983Z,19.83
2019-03-24T04:58:03.892Z,30.87
2019-03-24T05:00:34.750Z,21.83
2019-03-24T05:03:02.957Z,19.63
2019-03-24T05:05:30.988Z,23.17
2019-03-24T05:07:59.263Z,19.13
2019-03-24T05:10:27.266Z,14.67
2019-03-24T05:12:55.370Z,19.07
2019-03-24T05:15:23.779Z,27.63
2019-03-24T05:17:51.691Z,24.63
2019-03-24T05:20:19.511Z,14.93
2019-03-24T05:22:47.761Z,29.77
2019-03-24T05:25:15.496Z,26.07
2019-03-24T05:27:43.575Z,24.30
2019-03-24T05:30:11.709Z,25.70
2019-03-24T05:32:39.648Z,22.77
2019-03-24T05:35:07.705Z,26.37
2019-03-24T05:37:35.690Z,20.90
2019-03-24T05:40:04.316Z,26.87
2019-03-24T05:42:32.516Z,27.27
2019-03-24T05:45:00.668Z,17.00
2019-03-24T05:47:36.854Z,21.57
2019-03-24T05:49:58.672Z,23.87
2019-03-24T05:52:27.725Z,17.97
2019-03-24T05:54:56.432Z,22.83
2019-03-24T05:57:24.660Z,20.73
2019-03-24T05:59:52.511Z,23.90
2019-03-24T06:02:20.640Z,21.00
2019-03-24T06:04:48.462Z,21.83
2019-03-24T06:07:16.290Z,19.00
2019-03-24T06:09:44.428Z,25.63
2019-03-24T06:12:12.809Z,32.60
2019-03-24T06:14:41.031Z,21.03
2019-03-24T06:17:08.862Z,23.60
2019-03-24T06:19:36.988Z,25.60
2019-03-24T06:22:04.953Z,21.60
2019-03-24T06:24:32.877Z,17.33
2019-03-24T06:27:00.822Z,19.80
2019-03-24T06:29:28.692Z,25.03
2019-03-24T06:31:56.582Z,26.73
2019-03-24T06:34:24.401Z,22.30
2019-03-24T06:36:52.330Z,19.10
2019-03-24T06:39:20.565Z,18.03
2019-03-24T06:41:48.412Z,23.53
2019-03-24T06:44:16.722Z,21.87
2019-03-24T06:46:44.528Z,22.53
2019-03-24T06:49:12.648Z,21.33
2019-03-24T06:51:40.536Z,22.87
2019-03-24T06:54:08.461Z,19.30
2019-03-24T06:56:36.582Z,17.83
2019-03-24T06:59:04.431Z,16.77
2019-03-24T07:01:32.664Z,22.13
2019-03-24T07:04:00.605Z,20.20
2019-03-24T07:06:28.432Z,17.47
2019-03-24T07:08:56.999Z,20.23
2019-03-24T07:11:25.119Z,21.20
2019-03-24T07:13:53.071Z,26.43
2019-03-24T07:16:21.178Z,31.87
2019-03-24T07:18:49.379Z,18.70
2019-03-24T07:21:17.445Z,17.87
2019-03-24T07:23:45.370Z,19.10
2019-03-24T07:26:13.253Z,27.77
2019-03-24T07:28:41.463Z,20.80
2019-03-24T07:31:09.314Z,24.97
2019-03-24T07:33:37.672Z,21.80
2019-03-24T07:36:05.847Z,17.73
2019-03-24T07:38:33.766Z,31.43
2019-03-24T07:41:01.588Z,21.73
2019-03-24T07:43:29.998Z,21.97
2019-03-24T07:45:58.113Z,23.73
2019-03-24T07:48:26.183Z,24.70
2019-03-24T07:50:54.061Z,19.57
2019-03-24T07:53:22.250Z,23.37
2019-03-24T07:55:50.095Z,26.67
2019-03-24T07:58:18.547Z,25.23
2019-03-24T08:00:46.489Z,11.10
2019-03-24T08:03:14.426Z,24.70
2019-03-24T08:05:42.247Z,23.37
2019-03-24T08:08:10.325Z,25.07
2019-03-24T08:10:38.256Z,24.40
2019-03-24T08:13:06.212Z,28.60
2019-03-24T08:15:34.119Z,21.27
2019-03-24T08:18:01.954Z,28.90
2019-03-24T08:20:30.185Z,28.97
2019-03-24T08:22:58.040Z,26.23
2019-03-24T08:25:26.228Z,22.47
2019-03-24T08:27:54.439Z,28.87
2019-03-24T08:30:32.704Z,24.33
2019-03-24T08:33:00.929Z,25.03
2019-03-24T08:35:29.182Z,38.07
2019-03-24T08:37:57.828Z,25.87
2019-03-24T08:40:25.749Z,21.30
2019-03-24T08:42:53.847Z,28.63
2019-03-24T08:45:26.089Z,27.47
2019-03-24T08:47:54.219Z,22.17
2019-03-24T08:50:22.337Z,24.90
2019-03-24T08:52:50.179Z,17.97
2019-03-24T08:55:18.349Z,20.17
2019-03-24T08:57:46.158Z,23.20
2019-03-24T09:00:14.103Z,27.30
2019-03-24T09:02:42.630Z,29.90
2019-03-24T09:05:10.551Z,22.17
2019-03-24T09:07:38.513Z,19.90
2019-03-24T09:10:06.820Z,22.93
2019-03-24T09:12:34.963Z,22.60
2019-03-24T09:15:03.129Z,15.07
2019-03-24T09:17:31.193Z,29.17
2019-03-24T09:19:59.133Z,15.87
2019-03-24T09:22:27.592Z,25.73
2019-03-24T09:24:55.417Z,20.23
2019-03-24T09:27:23.259Z,20.27
2019-03-24T09:29:51.155Z,20.93
2019-03-24T09:32:19.122Z,16.67
2019-03-24T09:34:46.940Z,11.27
2019-03-24T09:37:14.805Z,13.07
2019-03-24T09:39:42.637Z,16.73
2019-03-24T09:42:10.518Z,16.47
2019-03-24T09:44:38.473Z,12.20
2019-03-24T09:47:06.394Z,14.87
2019-03-24T09:49:34.345Z,12.53
2019-03-24T09:52:02.485Z,11.40
2019-03-24T09:54:30.349Z,8.37
2019-03-24T09:56:58.653Z,8.67
2019-03-24T09:59:26.551Z,9.53
2019-03-24T10:01:54.382Z,11.93
2019-03-24T10:04:22.595Z,10.87
2019-03-24T10:06:50.532Z,10.63
2019-03-24T10:09:18.536Z,13.30
2019-03-24T10:11:48.989Z,10.13
2019-03-24T10:14:16.438Z,12.80
2019-03-24T10:16:44.697Z,6.40
2019-03-24T10:19:14.264Z,12.13
2019-03-24T10:21:42.363Z,12.13
2019-03-24T10:24:10.247Z,7.97
2019-03-24T10:26:38.472Z,10.77
2019-03-24T10:29:06.316Z,11.03
2019-03-24T10:31:34.237Z,10.73
2019-03-24T10:34:02.084Z,9.83
2019-03-24T10:36:29.923Z,12.47
2019-03-24T10:38:57.992Z,10.60
2019-03-24T10:41:25.903Z,10.63
2019-03-24T10:43:54.183Z,10.93
2019-03-24T10:46:22.032Z,5.73
2019-03-24T10:48:49.871Z,9.63
2019-03-24T10:51:17.773Z,14.70
2019-03-24T10:53:45.770Z,9.57
2019-03-24T10:56:13.904Z,11.47
2019-03-24T10:58:42.224Z,13.20
2019-03-24T11:01:10.338Z,8.57
2019-03-24T11:03:38.196Z,7.00
2019-03-24T11:06:06.408Z,8.33
2019-03-24T11:08:34.288Z,8.90
2019-03-24T11:11:02.737Z,9.87
2019-03-24T11:13:32.731Z,8.13
2019-03-24T11:16:00.700Z,11.63
2019-03-24T11:18:28.631Z,9.83
2019-03-24T11:20:56.727Z,11.40
2019-03-24T11:23:24.871Z,8.63
2019-03-24T11:25:52.706Z,10.93
2019-03-24T11:28:20.966Z,13.73
2019-03-24T11:30:48.906Z,10.13
2019-03-24T11:33:16.735Z,9.63
2019-03-24T11:35:44.868Z,7.03
2019-03-24T11:38:13.382Z,12.70
2019-03-24T11:40:41.317Z,11.90
2019-03-24T11:43:09.292Z,9.97
2019-03-24T11:45:37.729Z,7.63
2019-03-24T11:48:05.663Z,9.28
2019-03-24T11:50:33.577Z,8.03
2019-03-24T11:53:01.517Z,9.65
2019-03-24T11:55:29.363Z,10.97
2019-03-24T11:58:05.246Z,9.00
2019-03-24T12:00:34.435Z,10.93
2019-03-24T12:03:02.660Z,12.70
2019-03-24T12:05:30.891Z,8.80
2019-03-24T12:07:59.056Z,12.65
2019-03-24T12:10:27.026Z,14.15
2019-03-24T12:12:54.949Z,10.25
2019-03-24T12:15:22.905Z,8.78
2019-03-24T12:17:50.917Z,10.20
2019-03-24T12:20:19.121Z,8.18
2019-03-24T12:22:46.972Z,7.83
2019-03-24T12:25:15.020Z,8.60
2019-03-24T12:27:42.974Z,11.10
2019-03-24T12:30:11.356Z,9.00
2019-03-24T12:32:39.311Z,9.70
2019-03-24T12:35:08.088Z,6.90
2019-03-24T12:37:35.912Z,8.98
2019-03-24T12:40:04.519Z,9.08
2019-03-24T12:42:32.794Z,11.03
2019-03-24T12:45:00.731Z,6.12
2019-03-24T12:47:28.680Z,8.95
2019-03-24T12:50:08.100Z,8.95
2019-03-24T12:52:26.278Z,9.08
2019-03-24T12:54:54.226Z,19.25
2019-03-24T12:57:22.366Z,14.85
2019-03-24T12:59:50.333Z,9.90
2019-03-24T13:02:18.581Z,12.15
2019-03-24T13:04:46.525Z,10.78
2019-03-24T13:07:14.789Z,11.83
2019-03-24T13:09:42.769Z,11.33
2019-03-24T13:12:10.614Z,14.07
2019-03-24T13:14:38.572Z,10.90
2019-03-24T13:17:06.442Z,10.88
2019-03-24T13:19:36.112Z,10.28
2019-03-24T13:22:04.320Z,9.10
2019-03-24T13:24:33.108Z,12.45
2019-03-24T13:27:00.939Z,15.48
2019-03-24T13:29:28.937Z,18.48
2019-03-24T13:31:56.948Z,11.93
2019-03-24T13:34:24.770Z,10.88
2019-03-24T13:36:53.029Z,11.90
2019-03-24T13:39:20.974Z,14.83
2019-03-24T13:41:48.828Z,10.15
2019-03-24T13:44:17.009Z,10.93
2019-03-24T13:46:45.216Z,9.35
2019-03-24T13:49:13.071Z,14.30
2019-03-24T13:51:41.320Z,11.45
2019-03-24T13:54:09.145Z,9.28
2019-03-24T13:56:37.363Z,11.88
2019-03-24T13:59:05.346Z,11.15
2019-03-24T14:01:33.975Z,11.65
2019-03-24T14:04:01.933Z,11.10
2019-03-24T14:06:29.968Z,9.70
2019-03-24T14:08:57.984Z,10.30
2019-03-24T14:11:26.294Z,6.45
2019-03-24T14:13:54.421Z,10.63
2019-03-24T14:16:22.292Z,9.43
2019-03-24T14:18:50.329Z,18.07
2019-03-24T14:21:18.775Z,10.25
2019-03-24T14:23:46.680Z,11.35
2019-03-24T14:26:14.978Z,8.78
2019-03-24T14:28:42.845Z,7.60
2019-03-24T14:31:10.745Z,12.73
2019-03-24T14:33:38.914Z,11.43
2019-03-24T14:36:06.882Z,11.10
2019-03-24T14:38:34.941Z,10.23
2019-03-24T14:41:03.239Z,9.88
2019-03-24T14:43:33.654Z,9.75
2019-03-24T14:46:01.038Z,10.63
2019-03-24T14:48:28.960Z,14.63
2019-03-24T14:50:56.771Z,23.27
2019-03-24T14:53:25.025Z,14.50
2019-03-24T14:55:52.941Z,7.05
2019-03-24T14:58:20.856Z,9.33
2019-03-24T15:00:48.803Z,11.18
2019-03-24T15:03:16.969Z,9.38
2019-03-24T15:05:45.138Z,10.15
2019-03-24T15:08:12.999Z,7.53
2019-03-24T15:10:40.971Z,10.90
2019-03-24T15:13:09.286Z,13.50
2019-03-24T15:15:37.550Z,12.35
2019-03-24T15:18:05.504Z,11.43
2019-03-24T15:20:33.495Z,9.48
2019-03-24T15:23:01.636Z,9.80
2019-03-24T15:25:29.504Z,6.67
2019-03-24T15:27:57.435Z,8.68
2019-03-24T15:30:25.284Z,7.95
2019-03-24T15:32:53.643Z,10.47
2019-03-24T15:35:21.545Z,15.20
2019-03-24T15:37:49.734Z,10.20
2019-03-24T15:40:17.672Z,12.80
2019-03-24T15:42:45.593Z,11.10
2019-03-24T15:45:13.780Z,16.67
2019-03-24T15:47:41.636Z,13.53
2019-03-24T15:50:09.690Z,5.37
2019-03-24T15:52:37.568Z,10.50
2019-03-24T15:55:05.892Z,11.77
2019-03-24T15:57:33.828Z,7.07
2019-03-24T16:00:01.714Z,10.87
2019-03-24T16:02:29.892Z,15.40
2019-03-24T16:04:57.845Z,6.97
2019-03-24T16:07:25.739Z,6.50
2019-03-24T16:09:53.993Z,10.47
2019-03-24T16:12:21.853Z,8.37
2019-03-24T16:14:49.740Z,10.50
2019-03-24T16:17:17.688Z,7.60
2019-03-24T16:19:45.691Z,7.67
2019-03-24T16:22:13.581Z,8.07
2019-03-24T16:24:41.800Z,7.37
2019-03-24T16:27:09.688Z,12.00
2019-03-24T16:29:38.496Z,5.87
2019-03-24T16:32:06.389Z,9.40
2019-03-24T16:34:34.241Z,13.33
2019-03-24T16:37:02.450Z,5.57
2019-03-24T16:39:30.323Z,7.60
2019-03-24T16:41:58.305Z,7.97
2019-03-24T16:44:26.932Z,7.37
2019-03-24T16:46:54.803Z,7.37
2019-03-24T16:49:22.674Z,12.03
2019-03-24T16:51:50.922Z,5.50
2019-03-24T16:54:18.880Z,7.63
2019-03-24T16:56:46.743Z,10.13
2019-03-24T16:59:14.595Z,13.13
2019-03-24T17:01:43.006Z,8.30
2019-03-24T17:04:11.267Z,8.67
2019-03-24T17:06:39.547Z,6.30
2019-03-24T17:09:07.454Z,9.57
2019-03-24T17:11:35.426Z,5.07
2019-03-24T17:14:03.629Z,3.40
2019-03-24T17:16:31.537Z,6.17
2019-03-24T17:18:59.398Z,8.77
2019-03-24T17:21:27.358Z,9.73
2019-03-24T17:23:55.201Z,6.83
2019-03-24T17:26:23.105Z,7.43
2019-03-24T17:28:51.054Z,7.67
2019-03-24T17:31:18.983Z,10.43
2019-03-24T17:33:46.856Z,8.93
2019-03-24T17:36:15.057Z,11.43
2019-03-24T17:38:42.900Z,11.73
2019-03-24T17:41:11.115Z,10.17
2019-03-24T17:43:39.073Z,8.03
2019-03-24T17:46:06.929Z,12.80
2019-03-24T17:48:35.104Z,10.73
2019-03-24T17:51:03.048Z,12.13
2019-03-24T17:53:30.973Z,25.50
2019-03-24T17:55:58.843Z,11.70
2019-03-24T17:58:26.992Z,21.47
2019-03-24T18:00:56.283Z,23.33
2019-03-24T18:03:24.259Z,16.50
2019-03-24T18:05:52.177Z,24.50
2019-03-24T18:08:20.332Z,21.03
2019-03-24T18:10:48.174Z,7.70
2019-03-24T18:13:16.272Z,15.40
2019-03-24T18:15:44.581Z,11.17
2019-03-24T18:18:12.574Z,12.87
2019-03-24T18:20:40.423Z,12.90
2019-03-24T18:23:08.643Z,12.10
2019-03-24T18:25:36.588Z,12.73
2019-03-24T18:28:04.789Z,13.53
2019-03-24T18:30:32.784Z,17.70
2019-03-24T18:33:00.781Z,17.57
2019-03-24T18:35:28.758Z,12.97
2019-03-24T18:37:56.700Z,11.63
2019-03-24T18:40:24.611Z,15.03
2019-03-24T18:42:52.796Z,12.87
2019-03-24T18:45:20.768Z,13.93
2019-03-24T18:47:48.706Z,10.80
2019-03-24T18:50:16.906Z,28.83
2019-03-24T18:52:45.140Z,13.13
2019-03-24T18:55:13.429Z,12.37
2019-03-24T18:57:41.416Z,15.90
2019-03-24T19:00:09.941Z,15.87
2019-03-24T19:02:38.552Z,18.30
2019-03-24T19:05:08.989Z,13.07
2019-03-24T19:07:37.207Z,12.50
2019-03-24T19:10:05.985Z,15.03
2019-03-24T19:12:34.089Z,17.07
2019-03-24T19:15:02.325Z,8.90
2019-03-24T19:17:30.674Z,14.83
2019-03-24T19:19:58.689Z,12.60
2019-03-24T19:22:33.489Z,12.50
2019-03-24T19:24:56.896Z,17.93
2019-03-24T19:27:24.916Z,16.43
2019-03-24T19:29:53.186Z,14.73
2019-03-24T19:32:21.178Z,13.33
2019-03-24T19:34:49.130Z,12.33
2019-03-24T19:37:17.364Z,15.93
2019-03-24T19:39:45.302Z,11.10
2019-03-24T19:42:13.537Z,15.00
2019-03-24T19:44:41.414Z,11.03
2019-03-24T19:47:09.573Z,14.77
2019-03-24T19:49:37.516Z,14.43
2019-03-24T19:52:05.657Z,9.97
2019-03-24T19:54:33.598Z,18.43
2019-03-24T19:57:01.602Z,18.63
2019-03-24T19:59:29.789Z,16.70
2019-03-24T20:01:57.770Z,12.97
2019-03-24T20:04:25.659Z,10.90
2019-03-24T20:06:53.752Z,16.97
2019-03-24T20:09:21.714Z,15.57
2019-03-24T20:11:50.106Z,15.93
2019-03-24T20:14:18.223Z,17.67
2019-03-24T20:16:46.136Z,11.30
2019-03-24T20:19:14.111Z,12.73
2019-03-24T20:21:41.994Z,17.10
2019-03-24T20:24:10.516Z,11.00
2019-03-24T20:26:39.379Z,8.47
2019-03-24T20:29:07.379Z,14.93
2019-03-24T20:31:35.781Z,13.60
2019-03-24T20:34:03.799Z,8.57
2019-03-24T20:36:31.943Z,12.07
2019-03-24T20:39:00.215Z,14.37
2019-03-24T20:41:28.245Z,8.37
2019-03-24T20:43:56.191Z,9.53
2019-03-24T20:46:24.049Z,19.63
2019-03-24T20:48:51.914Z,10.93
2019-03-24T20:51:19.802Z,11.87
2019-03-24T20:53:47.739Z,11.73
2019-03-24T20:56:15.688Z,11.17
2019-03-24T20:58:43.608Z,16.50
2019-03-24T21:01:12.017Z,14.93
2019-03-24T21:03:39.986Z,10.53
2019-03-24T21:06:07.990Z,18.70
2019-03-24T21:08:35.976Z,13.97
2019-03-24T21:11:04.067Z,18.60
2019-03-24T21:13:31.930Z,10.93
2019-03-24T21:15:59.824Z,20.87
2019-03-24T21:18:28.133Z,11.00
2019-03-24T21:20:56.189Z,15.27
2019-03-24T21:23:29.460Z,11.20
2019-03-24T21:25:54.013Z,11.53
2019-03-24T21:28:22.076Z,17.13
2019-03-24T21:30:50.395Z,19.80
2019-03-24T21:33:18.474Z,17.83
2019-03-24T21:35:46.708Z,17.47
2019-03-24T21:38:14.893Z,14.73
2019-03-24T21:40:42.974Z,13.83
2019-03-24T21:43:11.107Z,20.47
2019-03-24T21:45:39.129Z,18.33
2019-03-24T21:48:07.603Z,16.47
2019-03-24T21:50:35.577Z,15.97
2019-03-24T21:53:04.005Z,13.67
2019-03-24T21:55:31.925Z,21.03
2019-03-24T21:58:00.177Z,11.90
2019-03-24T22:00:34.825Z,14.03
2019-03-24T22:03:03.494Z,15.67
2019-03-24T22:05:31.460Z,15.97
2019-03-24T22:07:59.439Z,17.67
2019-03-24T22:10:27.331Z,11.87
2019-03-24T22:12:55.260Z,10.97
2019-03-24T22:15:23.148Z,14.00
2019-03-24T22:17:51.182Z,15.90
2019-03-24T22:20:19.176Z,12.33
2019-03-24T22:22:47.059Z,15.77
2019-03-24T22:25:15.307Z,13.70
2019-03-24T22:27:43.321Z,12.37
2019-03-24T22:30:12.004Z,11.37
2019-03-24T22:32:39.968Z,11.43
2019-03-24T22:35:07.847Z,16.13
2019-03-24T22:37:36.446Z,13.07
2019-03-24T22:40:05.432Z,16.43
2019-03-24T22:42:33.439Z,16.87
2019-03-24T22:45:01.589Z,20.70
2019-03-24T22:47:29.556Z,12.37
2019-03-24T22:49:58.085Z,13.17
2019-03-24T22:52:26.306Z,18.27
2019-03-24T22:54:54.173Z,18.00
2019-03-24T22:57:22.109Z,17.73
2019-03-24T22:59:50.275Z,15.27
2019-03-24T23:02:18.451Z,13.20
2019-03-24T23:04:47.026Z,17.73
2019-03-24T23:07:15.553Z,13.60
2019-03-24T23:09:43.623Z,23.40
2019-03-24T23:12:12.955Z,18.33
2019-03-24T23:14:40.836Z,17.57
2019-03-24T23:17:08.656Z,14.37
2019-03-24T23:19:36.532Z,13.07
2019-03-24T23:22:04.468Z,13.70
2019-03-24T23:24:32.679Z,19.23
2019-03-24T23:27:00.534Z,15.10
2019-03-24T23:29:28.372Z,16.70
2019-03-24T23:31:56.264Z,14.20
2019-03-24T23:34:24.279Z,17.23
2019-03-24T23:36:52.117Z,10.33
2019-03-24T23:39:20.315Z,17.80
2019-03-24T23:41:48.424Z,13.87
2019-03-24T23:44:16.627Z,15.77
2019-03-24T23:46:44.479Z,27.40
2019-03-24T23:49:12.716Z,13.67
2019-03-24T23:51:40.531Z,20.87
2019-03-24T23:54:08.680Z,16.10
2019-03-24T23:56:36.752Z,19.50
2019-03-24T23:59:04.612Z,13.33
